createdAt,value
2017-06-23T00:01:39.897Z,14.20
2017-06-23T00:04:06.436Z,14.97
2017-06-23T00:06:32.901Z,13.30
2017-06-23T00:08:59.709Z,13.67
2017-06-23T00:11:26.301Z,14.27
2017-06-23T00:14:00.425Z,14.80
2017-06-23T00:16:26.879Z,14.60
2017-06-23T00:18:53.331Z,12.93
2017-06-23T00:21:19.820Z,13.23
2017-06-23T00:23:46.292Z,10.83
2017-06-23T00:26:12.807Z,10.03
2017-06-23T00:28:39.568Z,11.43
2017-06-23T00:31:06.328Z,11.23
2017-06-23T00:33:32.778Z,11.77
2017-06-23T00:35:59.240Z,11.47
2017-06-23T00:38:25.685Z,12.27
2017-06-23T00:40:59.108Z,11.20
2017-06-23T00:43:25.524Z,11.80
2017-06-23T00:45:52.166Z,12.93
2017-06-23T00:48:18.649Z,14.50
2017-06-23T00:50:45.298Z,14.00
2017-06-23T00:53:12.782Z,14.90
2017-06-23T00:55:39.228Z,15.33
2017-06-23T00:58:06.408Z,15.37
2017-06-23T01:00:32.856Z,16.10
2017-06-23T01:02:59.356Z,13.27
2017-06-23T01:05:26.515Z,13.00
2017-06-23T01:07:53.003Z,13.97
2017-06-23T01:10:20.131Z,13.90
2017-06-23T01:12:46.555Z,14.40
2017-06-23T01:15:13.074Z,14.30
2017-06-23T01:17:39.488Z,12.00
2017-06-23T01:20:06.000Z,12.40
2017-06-23T01:22:32.436Z,11.20
2017-06-23T01:24:58.880Z,11.13
2017-06-23T01:27:26.068Z,10.50
2017-06-23T01:29:52.561Z,10.57
2017-06-23T01:32:19.771Z,10.97
2017-06-23T01:34:46.272Z,10.07
2017-06-23T01:37:12.692Z,10.97
2017-06-23T01:39:39.391Z,10.30
2017-06-23T01:42:05.840Z,10.23
2017-06-23T01:44:32.335Z,11.70
2017-06-23T01:46:58.856Z,11.60
2017-06-23T01:49:25.310Z,11.80
2017-06-23T01:51:51.809Z,11.70
2017-06-23T01:54:18.336Z,12.70
2017-06-23T01:56:44.762Z,11.00
2017-06-23T01:59:11.537Z,10.70
2017-06-23T02:01:37.985Z,11.53
2017-06-23T02:04:04.547Z,11.70
2017-06-23T02:06:31.732Z,11.37
2017-06-23T02:08:58.133Z,11.53
2017-06-23T02:11:24.565Z,11.13
2017-06-23T02:13:50.996Z,10.80
2017-06-23T02:16:18.147Z,11.43
2017-06-23T02:18:44.643Z,11.17
2017-06-23T02:21:11.108Z,11.50
2017-06-23T02:23:38.316Z,12.10
2017-06-23T02:26:04.768Z,11.73
2017-06-23T02:28:31.251Z,12.20
2017-06-23T02:30:57.644Z,10.50
2017-06-23T02:33:24.072Z,10.87
2017-06-23T02:35:50.615Z,10.73
2017-06-23T02:38:17.060Z,10.00
2017-06-23T02:40:43.482Z,9.57
2017-06-23T02:43:09.892Z,10.10
2017-06-23T02:45:37.129Z,9.20
2017-06-23T02:48:07.193Z,9.33
2017-06-23T02:50:33.632Z,8.57
2017-06-23T02:53:00.840Z,8.70
2017-06-23T02:55:27.364Z,9.03
2017-06-23T02:57:53.818Z,8.37
2017-06-23T03:00:20.308Z,8.40
2017-06-23T03:02:50.843Z,7.20
2017-06-23T03:05:17.309Z,7.77
2017-06-23T03:07:43.753Z,8.00
2017-06-23T03:10:10.915Z,9.77
2017-06-23T03:12:38.137Z,9.30
2017-06-23T03:15:04.552Z,8.47
2017-06-23T03:17:30.991Z,8.50
2017-06-23T03:19:57.481Z,9.50
2017-06-23T03:22:24.572Z,7.57
2017-06-23T03:24:51.757Z,9.50
2017-06-23T03:27:18.270Z,8.47
2017-06-23T03:29:44.747Z,8.33
2017-06-23T03:32:11.203Z,8.90
2017-06-23T03:34:37.662Z,8.77
2017-06-23T03:37:04.884Z,8.83
2017-06-23T03:39:31.305Z,8.87
2017-06-23T03:41:57.760Z,9.23
2017-06-23T03:44:24.204Z,7.77
2017-06-23T03:46:50.693Z,8.67
2017-06-23T03:49:17.116Z,8.77
2017-06-23T03:51:44.069Z,9.13
2017-06-23T03:54:10.621Z,8.07
2017-06-23T03:56:37.298Z,9.03
2017-06-23T03:59:03.736Z,8.97
2017-06-23T04:01:30.348Z,9.97
2017-06-23T04:03:56.912Z,9.90
2017-06-23T04:06:24.080Z,9.27
2017-06-23T04:08:50.541Z,9.03
2017-06-23T04:11:16.958Z,9.20
2017-06-23T04:13:44.518Z,9.37
2017-06-23T04:16:10.940Z,9.30
2017-06-23T04:18:37.605Z,9.47
2017-06-23T04:21:04.157Z,9.23
2017-06-23T04:23:30.638Z,8.70
2017-06-23T04:25:57.072Z,9.80
2017-06-23T04:28:23.483Z,9.50
2017-06-23T04:30:49.931Z,9.90
2017-06-23T04:33:17.664Z,9.87
2017-06-23T04:35:44.117Z,10.17
2017-06-23T04:38:11.121Z,9.17
2017-06-23T04:40:37.550Z,10.53
2017-06-23T04:43:03.960Z,10.50
2017-06-23T04:45:30.423Z,10.53
2017-06-23T04:47:56.824Z,10.20
2017-06-23T04:50:23.996Z,11.73
2017-06-23T04:52:50.586Z,11.87
2017-06-23T04:55:17.761Z,12.60
2017-06-23T04:57:44.302Z,12.30
2017-06-23T05:00:10.717Z,14.00
2017-06-23T05:02:37.890Z,14.57
2017-06-23T05:05:04.422Z,15.07
2017-06-23T05:07:30.888Z,15.27
2017-06-23T05:09:57.377Z,14.37
2017-06-23T05:12:24.603Z,17.23
2017-06-23T05:14:51.109Z,16.47
2017-06-23T05:17:17.721Z,16.60
2017-06-23T05:19:44.168Z,16.33
2017-06-23T05:22:10.594Z,16.27
2017-06-23T05:24:37.080Z,16.13
2017-06-23T05:27:03.516Z,15.77
2017-06-23T05:29:29.980Z,15.40
2017-06-23T05:31:56.396Z,15.43
2017-06-23T05:34:22.962Z,16.37
2017-06-23T05:36:50.120Z,16.43
2017-06-23T05:39:16.645Z,15.00
2017-06-23T05:41:44.608Z,16.30
2017-06-23T05:44:11.052Z,15.40
2017-06-23T05:46:37.475Z,15.83
2017-06-23T05:49:04.680Z,15.13
2017-06-23T05:51:32.993Z,15.70
2017-06-23T05:53:59.444Z,15.00
2017-06-23T05:56:25.896Z,16.07
2017-06-23T05:58:52.352Z,15.60
2017-06-23T06:01:19.948Z,16.90
2017-06-23T06:03:46.454Z,16.20
2017-06-23T06:06:12.888Z,16.70
2017-06-23T06:08:39.348Z,17.03
2017-06-23T06:11:05.791Z,18.27
2017-06-23T06:13:32.280Z,18.63
2017-06-23T06:15:58.829Z,16.80
2017-06-23T06:18:26.050Z,19.17
2017-06-23T06:20:52.544Z,17.70
2017-06-23T06:23:18.977Z,16.87
2017-06-23T06:25:45.756Z,16.90
2017-06-23T06:28:12.259Z,16.20
2017-06-23T06:30:38.677Z,15.40
2017-06-23T06:33:05.156Z,15.53
2017-06-23T06:35:31.563Z,17.00
2017-06-23T06:37:57.982Z,15.17
2017-06-23T06:40:24.664Z,15.10
2017-06-23T06:42:51.363Z,15.77
2017-06-23T06:45:18.532Z,15.97
2017-06-23T06:47:44.996Z,16.73
2017-06-23T06:50:11.431Z,16.60
2017-06-23T06:52:38.021Z,15.63
2017-06-23T06:55:04.604Z,15.13
2017-06-23T06:57:31.095Z,15.70
2017-06-23T06:59:57.534Z,16.57
2017-06-23T07:02:24.044Z,16.20
2017-06-23T07:04:51.073Z,17.23
2017-06-23T07:07:17.510Z,18.10
2017-06-23T07:09:44.040Z,16.30
2017-06-23T07:12:11.421Z,15.33
2017-06-23T07:14:38.620Z,17.37
2017-06-23T07:17:05.076Z,17.10
2017-06-23T07:19:31.517Z,18.73
2017-06-23T07:21:57.934Z,17.80
2017-06-23T07:24:24.377Z,18.73
2017-06-23T07:26:51.024Z,17.83
2017-06-23T07:29:17.416Z,19.40
2017-06-23T07:31:43.807Z,18.47
2017-06-23T07:34:10.200Z,19.00
2017-06-23T07:36:36.758Z,19.13
2017-06-23T07:39:03.229Z,19.20
2017-06-23T07:41:31.092Z,18.30
2017-06-23T07:43:57.531Z,18.80
2017-06-23T07:46:23.963Z,19.03
2017-06-23T07:48:50.436Z,18.27
2017-06-23T07:51:16.894Z,19.60
2017-06-23T07:53:43.331Z,19.33
2017-06-23T07:56:09.770Z,18.93
2017-06-23T07:58:36.185Z,19.60
2017-06-23T08:01:02.612Z,19.50
2017-06-23T08:03:29.480Z,18.10
2017-06-23T08:05:55.896Z,18.17
2017-06-23T08:08:22.284Z,20.60
2017-06-23T08:10:48.705Z,19.50
2017-06-23T08:13:15.128Z,19.60
2017-06-23T08:15:41.588Z,18.53
2017-06-23T08:18:08.009Z,17.70
2017-06-23T08:20:34.417Z,17.30
2017-06-23T08:23:00.849Z,16.77
2017-06-23T08:25:34.019Z,16.57
2017-06-23T08:28:00.453Z,17.07
2017-06-23T08:30:26.989Z,16.10
2017-06-23T08:32:53.406Z,14.53
2017-06-23T08:35:19.838Z,14.83
2017-06-23T08:37:46.999Z,13.10
2017-06-23T08:40:13.444Z,13.63
2017-06-23T08:42:39.848Z,13.80
2017-06-23T08:45:06.255Z,15.70
2017-06-23T08:47:37.988Z,16.10
2017-06-23T08:50:04.423Z,14.80
2017-06-23T08:52:30.835Z,15.53
2017-06-23T08:54:57.263Z,14.57
2017-06-23T08:57:23.669Z,15.30
2017-06-23T08:59:50.093Z,13.20
2017-06-23T09:02:16.536Z,14.40
2017-06-23T09:04:42.964Z,15.30
2017-06-23T09:07:09.673Z,15.03
2017-06-23T09:09:36.084Z,15.03
2017-06-23T09:12:02.521Z,14.27
2017-06-23T09:14:28.924Z,15.67
2017-06-23T09:16:55.339Z,16.03
2017-06-23T09:19:21.781Z,15.37
2017-06-23T09:21:48.257Z,15.93
2017-06-23T09:24:14.689Z,15.30
2017-06-23T09:26:41.149Z,13.87
2017-06-23T09:29:07.678Z,14.80
2017-06-23T09:31:34.837Z,13.40
2017-06-23T09:34:01.982Z,15.03
2017-06-23T09:36:28.484Z,14.00
2017-06-23T09:38:55.752Z,15.47
2017-06-23T09:41:22.155Z,15.10
2017-06-23T09:43:48.568Z,14.27
2017-06-23T09:46:14.980Z,14.57
2017-06-23T09:48:41.404Z,15.20
2017-06-23T09:51:07.839Z,14.40
2017-06-23T09:53:34.435Z,15.20
2017-06-23T09:56:00.891Z,16.20
2017-06-23T09:58:27.439Z,14.50
2017-06-23T10:00:53.905Z,14.30
2017-06-23T10:03:21.073Z,14.20
2017-06-23T10:05:48.237Z,13.77
2017-06-23T10:08:14.689Z,13.93
2017-06-23T10:10:41.126Z,14.27
2017-06-23T10:13:07.541Z,13.30
2017-06-23T10:15:33.932Z,12.73
2017-06-23T10:18:00.383Z,12.83
2017-06-23T10:20:26.836Z,13.00
2017-06-23T10:22:53.992Z,10.13
2017-06-23T10:25:20.754Z,10.63
2017-06-23T10:27:47.184Z,10.80
2017-06-23T10:30:14.378Z,12.07
2017-06-23T10:32:40.800Z,10.90
2017-06-23T10:35:12.964Z,11.53
2017-06-23T10:37:39.373Z,10.03
2017-06-23T10:40:08.946Z,11.20
2017-06-23T10:42:35.371Z,10.97
2017-06-23T10:45:01.768Z,10.60
2017-06-23T10:47:28.187Z,11.20
2017-06-23T10:49:55.344Z,12.20
2017-06-23T10:52:22.535Z,12.50
2017-06-23T10:54:51.859Z,11.33
2017-06-23T10:57:19.101Z,12.03
2017-06-23T10:59:45.544Z,12.47
2017-06-23T11:02:12.732Z,11.60
2017-06-23T11:04:39.151Z,11.83
2017-06-23T11:07:05.580Z,11.87
2017-06-23T11:09:32.017Z,10.23
2017-06-23T11:11:58.435Z,11.10
2017-06-23T11:14:24.868Z,12.53
2017-06-23T11:16:53.273Z,11.90
2017-06-23T11:19:20.437Z,10.90
2017-06-23T11:21:46.888Z,11.60
2017-06-23T11:24:13.317Z,11.57
2017-06-23T11:26:39.764Z,11.33
2017-06-23T11:29:06.924Z,11.43
2017-06-23T11:31:36.612Z,11.00
2017-06-23T11:34:03.068Z,12.60
2017-06-23T11:36:29.481Z,10.47
2017-06-23T11:38:55.914Z,10.90
2017-06-23T11:41:22.327Z,9.93
2017-06-23T11:43:48.749Z,10.70
2017-06-23T11:46:15.188Z,10.40
2017-06-23T11:48:43.769Z,10.87
2017-06-23T11:51:10.220Z,11.87
2017-06-23T11:53:36.677Z,11.60
2017-06-23T11:56:03.131Z,11.07
2017-06-23T11:58:29.564Z,11.23
2017-06-23T12:00:55.977Z,12.17
2017-06-23T12:03:22.394Z,11.13
2017-06-23T12:05:48.812Z,10.47
2017-06-23T12:08:15.541Z,10.90
2017-06-23T12:10:42.088Z,10.70
2017-06-23T12:13:08.580Z,10.47
2017-06-23T12:15:35.005Z,9.93
2017-06-23T12:18:01.682Z,10.07
2017-06-23T12:20:28.136Z,9.80
2017-06-23T12:22:54.556Z,9.27
2017-06-23T12:25:20.984Z,10.63
2017-06-23T12:27:47.388Z,9.40
2017-06-23T12:30:13.811Z,10.27
2017-06-23T12:32:40.241Z,8.90
2017-06-23T12:35:06.664Z,7.43
2017-06-23T12:37:33.078Z,7.70
2017-06-23T12:39:59.578Z,7.47
2017-06-23T12:42:26.068Z,7.23
2017-06-23T12:44:52.785Z,7.50
2017-06-23T12:47:19.236Z,7.97
2017-06-23T12:49:45.659Z,8.87
2017-06-23T12:52:12.106Z,7.73
2017-06-23T12:54:38.542Z,7.60
2017-06-23T12:57:05.002Z,7.53
2017-06-23T12:59:31.406Z,6.93
2017-06-23T13:01:57.948Z,7.20
2017-06-23T13:04:24.374Z,7.10
2017-06-23T13:06:50.801Z,6.50
2017-06-23T13:09:17.308Z,7.47
2017-06-23T13:11:44.549Z,7.10
2017-06-23T13:14:10.985Z,6.23
2017-06-23T13:16:37.401Z,6.53
2017-06-23T13:19:03.927Z,6.10
2017-06-23T13:21:30.429Z,6.43
2017-06-23T13:23:56.904Z,6.40
2017-06-23T13:26:23.330Z,6.73
2017-06-23T13:28:49.797Z,7.20
2017-06-23T13:31:16.282Z,6.53
2017-06-23T13:33:42.873Z,6.63
2017-06-23T13:36:09.297Z,7.43
2017-06-23T13:38:35.717Z,6.57
2017-06-23T13:41:02.124Z,5.17
2017-06-23T13:43:28.544Z,5.50
2017-06-23T13:45:55.714Z,5.10
2017-06-23T13:48:22.176Z,5.17
2017-06-23T13:50:48.624Z,6.10
2017-06-23T13:53:15.043Z,5.90
2017-06-23T13:55:41.485Z,6.20
2017-06-23T13:58:07.917Z,6.50
2017-06-23T14:00:34.420Z,6.30
2017-06-23T14:03:00.862Z,6.20
2017-06-23T14:05:27.322Z,5.77
2017-06-23T14:07:53.776Z,5.63
2017-06-23T14:10:21.586Z,6.40
2017-06-23T14:12:48.117Z,5.20
2017-06-23T14:15:15.314Z,5.50
2017-06-23T14:17:41.727Z,6.10
2017-06-23T14:20:08.193Z,5.87
2017-06-23T14:22:35.360Z,5.97
2017-06-23T14:25:02.290Z,5.63
2017-06-23T14:27:28.733Z,6.50
2017-06-23T14:29:56.012Z,5.53
2017-06-23T14:32:22.463Z,6.13
2017-06-23T14:34:48.948Z,6.27
2017-06-23T14:37:15.368Z,6.50
2017-06-23T14:39:41.799Z,6.57
2017-06-23T14:42:08.227Z,5.23
2017-06-23T14:44:34.672Z,5.73
2017-06-23T14:47:01.097Z,7.10
2017-06-23T14:49:27.509Z,7.37
2017-06-23T14:51:53.937Z,6.50
2017-06-23T14:54:20.390Z,5.83
2017-06-23T14:56:46.829Z,6.43
2017-06-23T14:59:13.241Z,6.20
2017-06-23T15:01:39.649Z,5.53
2017-06-23T15:04:06.057Z,6.13
2017-06-23T15:06:32.472Z,6.87
2017-06-23T15:08:58.889Z,7.87
2017-06-23T15:11:25.296Z,7.00
2017-06-23T15:13:52.440Z,7.07
2017-06-23T15:16:18.869Z,7.17
2017-06-23T15:18:45.343Z,6.43
2017-06-23T15:21:11.763Z,8.17
2017-06-23T15:23:38.200Z,7.70
2017-06-23T15:26:05.164Z,7.50
2017-06-23T15:28:31.623Z,7.07
2017-06-23T15:30:58.058Z,6.80
2017-06-23T15:33:24.482Z,6.60
2017-06-23T15:35:51.085Z,6.90
2017-06-23T15:38:17.533Z,6.40
2017-06-23T15:40:43.968Z,5.90
2017-06-23T15:43:10.464Z,5.87
2017-06-23T15:45:36.881Z,5.47
2017-06-23T15:48:03.292Z,5.93
2017-06-23T15:50:29.777Z,6.10
2017-06-23T15:52:56.273Z,5.63
2017-06-23T15:55:22.708Z,5.40
2017-06-23T15:57:49.951Z,5.33
2017-06-23T16:00:17.114Z,5.40
2017-06-23T16:02:43.520Z,6.57
2017-06-23T16:05:10.703Z,5.53
2017-06-23T16:07:37.101Z,5.70
2017-06-23T16:10:03.581Z,5.87
2017-06-23T16:12:29.996Z,6.40
2017-06-23T16:14:56.489Z,5.63
2017-06-23T16:17:22.892Z,20.93
2017-06-23T16:19:49.388Z,9.60
2017-06-23T16:22:17.340Z,6.20
2017-06-23T16:24:44.513Z,5.80
2017-06-23T16:27:10.953Z,5.70
2017-06-23T16:29:37.436Z,10.80
2017-06-23T16:32:03.925Z,5.97
2017-06-23T16:34:30.427Z,5.60
2017-06-23T16:36:58.024Z,5.50
2017-06-23T16:39:24.474Z,6.30
2017-06-23T16:41:51.002Z,10.33
2017-06-23T16:44:17.431Z,10.07
2017-06-23T16:46:43.996Z,6.57
2017-06-23T16:49:10.438Z,5.50
2017-06-23T16:51:36.841Z,5.40
2017-06-23T16:54:03.305Z,4.87
2017-06-23T16:56:29.728Z,5.03
2017-06-23T16:58:56.148Z,6.07
2017-06-23T17:01:22.541Z,5.63
2017-06-23T17:03:48.978Z,5.40
2017-06-23T17:06:16.243Z,5.40
2017-06-23T17:08:47.265Z,5.00
2017-06-23T17:11:13.696Z,5.07
2017-06-23T17:13:40.093Z,5.20
2017-06-23T17:16:06.503Z,4.90
2017-06-23T17:18:32.888Z,4.63
2017-06-23T17:20:59.314Z,5.20
2017-06-23T17:23:29.919Z,4.67
2017-06-23T17:25:56.332Z,4.67
2017-06-23T17:28:22.804Z,4.97
2017-06-23T17:30:49.195Z,5.10
2017-06-23T17:33:15.653Z,4.50
2017-06-23T17:35:42.185Z,4.83
2017-06-23T17:38:08.620Z,4.10
2017-06-23T17:40:35.072Z,4.60
2017-06-23T17:43:01.544Z,4.77
2017-06-23T17:45:28.070Z,5.33
2017-06-23T17:47:54.458Z,4.87
2017-06-23T17:50:20.881Z,4.80
2017-06-23T17:52:47.266Z,4.80
2017-06-23T17:55:13.683Z,4.33
2017-06-23T17:57:40.819Z,4.30
2017-06-23T18:00:08.004Z,3.77
2017-06-23T18:02:34.392Z,4.70
2017-06-23T18:05:00.786Z,4.10
2017-06-23T18:07:27.191Z,4.60
2017-06-23T18:09:53.584Z,4.40
2017-06-23T18:12:20.002Z,4.53
2017-06-23T18:14:46.399Z,4.50
2017-06-23T18:17:12.796Z,4.03
2017-06-23T18:19:39.204Z,4.60
2017-06-23T18:22:05.627Z,4.23
2017-06-23T18:24:32.066Z,4.50
2017-06-23T18:26:58.460Z,3.87
2017-06-23T18:29:24.862Z,5.57
2017-06-23T18:31:51.275Z,4.23
2017-06-23T18:34:17.644Z,4.37
2017-06-23T18:36:44.036Z,4.50
2017-06-23T18:39:10.483Z,4.57
2017-06-23T18:41:37.624Z,4.20
2017-06-23T18:44:04.024Z,4.20
2017-06-23T18:46:30.458Z,4.23
2017-06-23T18:48:56.873Z,4.23
2017-06-23T18:51:23.284Z,4.10
2017-06-23T18:53:49.721Z,4.17
2017-06-23T18:56:16.153Z,4.00
2017-06-23T18:58:42.572Z,4.77
2017-06-23T19:01:08.957Z,4.20
2017-06-23T19:03:35.366Z,4.10
2017-06-23T19:06:01.760Z,3.77
2017-06-23T19:08:28.956Z,5.03
2017-06-23T19:10:55.377Z,3.80
2017-06-23T19:13:21.800Z,4.57
2017-06-23T19:15:48.185Z,4.40
2017-06-23T19:18:14.585Z,3.90
2017-06-23T19:20:40.974Z,3.90
2017-06-23T19:23:08.766Z,4.40
2017-06-23T19:25:35.169Z,3.93
2017-06-23T19:28:01.568Z,3.83
2017-06-23T19:30:30.988Z,3.33
2017-06-23T19:32:57.401Z,4.10
2017-06-23T19:35:23.804Z,3.60
2017-06-23T19:37:50.208Z,4.50
2017-06-23T19:40:16.608Z,4.33
2017-06-23T19:42:43.749Z,4.17
2017-06-23T19:45:10.172Z,3.93
2017-06-23T19:47:36.589Z,3.60
2017-06-23T19:50:03.012Z,3.70
2017-06-23T19:52:29.406Z,4.03
2017-06-23T19:54:55.836Z,4.30
2017-06-23T19:57:22.245Z,3.93
2017-06-23T19:59:48.641Z,4.53
2017-06-23T20:02:15.035Z,3.80
2017-06-23T20:04:41.518Z,3.93
2017-06-23T20:07:08.097Z,3.83
2017-06-23T20:09:34.673Z,4.20
2017-06-23T20:12:01.089Z,4.90
2017-06-23T20:14:27.518Z,4.33
2017-06-23T20:16:53.924Z,3.50
2017-06-23T20:19:20.341Z,4.33
2017-06-23T20:21:46.760Z,4.30
2017-06-23T20:24:13.195Z,4.10
2017-06-23T20:26:39.621Z,3.93
2017-06-23T20:29:06.773Z,4.17
2017-06-23T20:31:33.283Z,3.70
2017-06-23T20:33:59.800Z,4.07
2017-06-23T20:36:26.252Z,4.10
2017-06-23T20:38:52.646Z,3.87
2017-06-23T20:41:19.105Z,4.10
2017-06-23T20:43:45.529Z,4.30
2017-06-23T20:46:12.506Z,3.37
2017-06-23T20:48:38.901Z,3.43
2017-06-23T20:51:06.254Z,3.40
2017-06-23T20:53:32.757Z,3.70
2017-06-23T20:55:59.189Z,3.13
2017-06-23T20:58:25.580Z,3.50
2017-06-23T21:01:01.750Z,4.03
2017-06-23T21:03:28.972Z,5.97
2017-06-23T21:05:56.138Z,5.10
2017-06-23T21:08:23.811Z,5.63
2017-06-23T21:10:50.210Z,5.43
2017-06-23T21:13:18.225Z,5.73
2017-06-23T21:15:44.738Z,6.43
2017-06-23T21:18:11.155Z,5.90
2017-06-23T21:20:37.684Z,6.23
2017-06-23T21:23:04.122Z,6.10
2017-06-23T21:25:30.684Z,6.47
2017-06-23T21:27:57.100Z,7.07
2017-06-23T21:30:23.595Z,6.30
2017-06-23T21:32:49.992Z,6.60
2017-06-23T21:35:16.384Z,7.00
2017-06-23T21:37:42.789Z,6.40
2017-06-23T21:40:09.598Z,6.93
2017-06-23T21:42:35.989Z,6.43
2017-06-23T21:45:02.389Z,6.40
2017-06-23T21:47:28.774Z,7.10
2017-06-23T21:49:55.201Z,7.07
2017-06-23T21:52:21.619Z,7.60
2017-06-23T21:54:48.118Z,7.60
2017-06-23T21:57:16.296Z,6.90
2017-06-23T21:59:42.736Z,6.23
2017-06-23T22:02:09.132Z,6.67
2017-06-23T22:04:35.568Z,6.50
2017-06-23T22:07:01.994Z,6.20
2017-06-23T22:09:28.645Z,6.67
2017-06-23T22:11:56.603Z,6.30
2017-06-23T22:14:23.057Z,6.13
2017-06-23T22:16:51.221Z,6.73
2017-06-23T22:19:19.152Z,6.97
2017-06-23T22:21:45.721Z,6.23
2017-06-23T22:24:14.034Z,6.73
2017-06-23T22:26:56.662Z,5.47
2017-06-23T22:29:23.745Z,6.03
2017-06-23T22:31:50.216Z,5.80
2017-06-23T22:34:16.732Z,6.80
2017-06-23T22:36:43.134Z,5.90
2017-06-23T22:39:09.880Z,6.47
2017-06-23T22:41:36.299Z,5.80
2017-06-23T22:44:02.770Z,6.50
2017-06-23T22:46:29.216Z,6.60
2017-06-23T22:48:55.619Z,5.87
2017-06-23T22:51:22.043Z,6.00
2017-06-23T22:53:48.481Z,6.37
2017-06-23T22:56:14.903Z,7.20
2017-06-23T22:58:41.326Z,7.23
2017-06-23T23:01:07.756Z,6.30
2017-06-23T23:03:34.236Z,6.40
2017-06-23T23:06:00.645Z,6.67
2017-06-23T23:08:27.112Z,6.60
2017-06-23T23:10:53.513Z,6.43
2017-06-23T23:13:19.996Z,7.00
2017-06-23T23:15:46.418Z,7.07
2017-06-23T23:18:12.828Z,6.97
2017-06-23T23:20:39.235Z,6.83
2017-06-23T23:23:05.636Z,6.70
2017-06-23T23:25:32.039Z,5.50
2017-06-23T23:27:58.464Z,7.30
2017-06-23T23:30:24.889Z,6.60
2017-06-23T23:32:51.331Z,6.97
2017-06-23T23:35:17.791Z,6.50
2017-06-23T23:37:44.304Z,6.13
2017-06-23T23:40:10.972Z,5.30
2017-06-23T23:42:37.441Z,5.10
2017-06-23T23:45:03.849Z,4.37
2017-06-23T23:47:30.243Z,4.37
2017-06-23T23:49:56.640Z,4.50
2017-06-23T23:52:23.426Z,4.83
2017-06-23T23:54:49.844Z,4.00
2017-06-23T23:57:16.280Z,4.10
2017-06-23T23:59:42.712Z,4.10
